aviador You're here:

MDST Decoded Metar

SANTIAGO in DOMINICAN REPUBLIC
Report Time2018-02-19 03:00:00
UTC Time2018-02-19 03:32:20
Flight Rules vfr VFR
WindCalm
Visibility9999 m
Phenomena:N/A
Clouds:Scattered 014 Hf
Scattered 070 Hf
CeilingNone
Temp21°C (ISA +7)
Dew Point21°C (100% RH)
QNH1021 hPa
Density Alt1,460 ft
Elevation567 ft
Report Wrong Elevation
Raw Report
MDST 190300Z 00000KT 9999 SCT014 SCT070 21/21 Q1021=

Extra information for MDST:More info

Metar Taf Metar & Taf Last 4 Metars F.Rules Stats Wind Profile Meteogram Temp Stats Airport Information Weather charts Add Link Nearby VenuesMetar ALERT Operation Metar Decoded Social comments